Perez Millan, Argentina
Current Conditions -  °F | °C
As of 9:00 PM on Monday 20 Oct 2014 (Local Time) from SAAR Reporting Station
Clear Clear  
Wind Chill: 21°   Ceiling: Unl
Heat Index: 21°   Visibility: 6mi
Dew Point: 14°   Wind: 8mph
Humidity: 64%   Direction: 70°ENE
Pressure: 30.06"   Gusts: NA
Location:  33.78°S, 60.12°W
Report Text: SAAR 210000Z 07007KT CAVOK 21/14 Q1018
Loading
Personal Weather Stations






























Interactive Weather Map
Tropical Storm Tracking
New forecast layout! Learn more

10-Day Weather Forecast

Advertisements
Track Severe Weather on mobile